Weather at Buffalo Niagara International Airport

Public forecast

Using degrees Fahrenheit for public forecast. Weather courtesy of forecast.io.

Current aviation weather report (METAR) for Buffalo Niagara International Airport

2024/05/18 10:54 (retrieved 22 minutes ago)

KBUF 181054Z 34004KT 8SM BKN002 OVC025 16/15 A2989 RMK AO2 SLP122 T01610150

Aviation forecast (TAF) for Buffalo Niagara International Airport

2024/05/18 06:39 (retrieved 5 hours ago)

TAF KBUF 180536Z 1806/1906 00000KT P6SM FEW015 OVC025 FM180700 00000KT 6SM BR BKN015 OVC025 FM180900 00000KT 2SM BR OVC007 FM181500 00000KT P6SM OVC015 FM181900 30004KT P6SM BKN050